SAS2963 EKCH-LIRQ
Flight info
| Callsign | SAS2963 |
|---|---|
| Flight time | N/A |
| Altitude | 37000 |
| Route | NEXEN T503 GIMRU DCT MICOS DCT NEBUN DCT EMBOX/N0439F390 DCT EXITI DCT BERAS DCT LIKDA DCT BAKOR DCT GOXIN Q58 BIKTU |
| Aircraft | A20N/M-SDE2E3FGHIRWXY/LB1 |
Departure
| Time | 2026-04-25 13:35 |
|---|---|
| Airport | Copenhagen Kastrup Airport (EKCH) |
Arrival
| Time | N/A |
|---|---|
| Airport | Florence Airport, Peretola (LIRQ) |
| Time | Latitude | Longitude | Altitude | Speed | Heading |
|---|---|---|---|---|---|
| 2026-04-25 13:00 | 55.62897 | 12.63804 | 15 ft | 0 kts | 14° |
| 2026-04-25 13:22 | 55.62896 | 12.63804 | 15 ft | 1 kts | 14° |
| 2026-04-25 13:22 | 55.62882 | 12.63797 | 15 ft | 2 kts | 15° |
| 2026-04-25 13:23 | 55.62857 | 12.63770 | 15 ft | 2 kts | 64° |
| 2026-04-25 13:23 | 55.62854 | 12.63753 | 15 ft | 2 kts | 85° |
| 2026-04-25 13:23 | 55.62858 | 12.63718 | 15 ft | 2 kts | 100° |
| 2026-04-25 13:23 | 55.62859 | 12.63692 | 15 ft | 2 kts | 91° |
| 2026-04-25 13:24 | 55.62858 | 12.63668 | 15 ft | 0 kts | 88° |
| 2026-04-25 13:24 | 55.62858 | 12.63664 | 15 ft | 0 kts | 88° |
| 2026-04-25 13:24 | 55.62858 | 12.63665 | 15 ft | 0 kts | 88° |
| 2026-04-25 13:27 | 55.62858 | 12.63689 | 15 ft | 6 kts | 94° |
| 2026-04-25 13:27 | 55.62845 | 12.63801 | 15 ft | 10 kts | 104° |
| 2026-04-25 13:27 | 55.62821 | 12.63937 | 15 ft | 12 kts | 132° |
| 2026-04-25 13:27 | 55.62741 | 12.63925 | 15 ft | 12 kts | 215° |
| 2026-04-25 13:28 | 55.62675 | 12.63845 | 15 ft | 11 kts | 213° |
| 2026-04-25 13:28 | 55.62654 | 12.63821 | 15 ft | 10 kts | 213° |
| 2026-04-25 13:28 | 55.62602 | 12.63779 | 15 ft | 0 kts | 194° |
| 2026-04-25 13:32 | 55.62593 | 12.63775 | 15 ft | 3 kts | 193° |
| 2026-04-25 13:32 | 55.62544 | 12.63769 | 15 ft | 10 kts | 176° |
| 2026-04-25 13:32 | 55.62452 | 12.63840 | 15 ft | 18 kts | 139° |
| 2026-04-25 13:32 | 55.62347 | 12.64094 | 15 ft | 30 kts | 122° |
| 2026-04-25 13:33 | 55.62231 | 12.64364 | 15 ft | 21 kts | 172° |
| 2026-04-25 13:33 | 55.62103 | 12.64263 | 15 ft | 20 kts | 206° |
| 2026-04-25 13:33 | 55.61977 | 12.64158 | 18 ft | 19 kts | 206° |
| 2026-04-25 13:33 | 55.61892 | 12.64091 | 19 ft | 19 kts | 199° |
| 2026-04-25 13:34 | 55.61714 | 12.64084 | 20 ft | 18 kts | 178° |
| 2026-04-25 13:34 | 55.61599 | 12.64035 | 20 ft | 17 kts | 222° |
| 2026-04-25 13:34 | 55.61482 | 12.63851 | 21 ft | 43 kts | 222° |
| 2026-04-25 13:34 | 55.61069 | 12.63213 | 19 ft | 111 kts | 221° |
| 2026-04-25 13:35 | 55.60341 | 12.62105 | 77 ft | 157 kts | 227° |
| 2026-04-25 13:35 | 55.59801 | 12.61319 | 467 ft | 157 kts | 225° |
| 2026-04-25 13:35 | 55.58659 | 12.59750 | 1380 ft | 157 kts | 224° |
| 2026-04-25 13:35 | 55.57820 | 12.58533 | 1974 ft | 160 kts | 229° |
| 2026-04-25 13:36 | 55.56957 | 12.57083 | 2280 ft | 180 kts | 230° |
| 2026-04-25 13:36 | 55.55973 | 12.55579 | 2740 ft | 196 kts | 224° |
| 2026-04-25 13:36 | 55.54791 | 12.54151 | 3152 ft | 215 kts | 220° |
| 2026-04-25 13:36 | 55.53933 | 12.53115 | 3358 ft | 230 kts | 222° |
| 2026-04-25 13:37 | 55.52103 | 12.50863 | 3999 ft | 252 kts | 222° |
| 2026-04-25 13:37 | 55.50655 | 12.49093 | 4750 ft | 258 kts | 222° |
| 2026-04-25 13:37 | 55.49162 | 12.47270 | 5591 ft | 260 kts | 223° |
| 2026-04-25 13:37 | 55.47687 | 12.45465 | 6384 ft | 264 kts | 223° |
| 2026-04-25 13:38 | 55.46166 | 12.43606 | 7189 ft | 268 kts | 223° |
| 2026-04-25 13:38 | 55.44638 | 12.41730 | 7973 ft | 270 kts | 223° |
| 2026-04-25 13:38 | 55.43087 | 12.39840 | 8697 ft | 275 kts | 223° |
| 2026-04-25 13:38 | 55.41516 | 12.37936 | 9430 ft | 280 kts | 223° |
| 2026-04-25 13:39 | 55.39917 | 12.35993 | 10160 ft | 284 kts | 224° |
| 2026-04-25 13:39 | 55.38252 | 12.33954 | 10621 ft | 297 kts | 223° |
| 2026-04-25 13:39 | 55.36524 | 12.31838 | 10974 ft | 314 kts | 223° |
| 2026-04-25 13:39 | 55.34684 | 12.29594 | 11422 ft | 326 kts | 222° |
| 2026-04-25 13:40 | 55.32820 | 12.27345 | 12115 ft | 329 kts | 222° |
| 2026-04-25 13:40 | 55.30929 | 12.25074 | 12857 ft | 330 kts | 223° |
| 2026-04-25 13:40 | 55.29045 | 12.22803 | 13559 ft | 332 kts | 223° |
| 2026-04-25 13:40 | 55.27790 | 12.21284 | 14012 ft | 333 kts | 223° |
| 2026-04-25 13:41 | 55.25890 | 12.18989 | 14687 ft | 334 kts | 223° |
| 2026-04-25 13:41 | 55.23307 | 12.15873 | 15569 ft | 338 kts | 224° |
| 2026-04-25 13:41 | 55.21368 | 12.13532 | 16221 ft | 342 kts | 224° |
| 2026-04-25 13:41 | 55.19424 | 12.11159 | 16870 ft | 343 kts | 225° |
| 2026-04-25 13:42 | 55.17504 | 12.08704 | 17514 ft | 345 kts | 226° |
| 2026-04-25 13:42 | 55.15588 | 12.06231 | 18134 ft | 347 kts | 226° |
| 2026-04-25 13:42 | 55.13627 | 12.03704 | 18731 ft | 350 kts | 226° |
| 2026-04-25 13:42 | 55.12305 | 12.02006 | 19121 ft | 352 kts | 226° |
| 2026-04-25 13:43 | 55.09667 | 11.98629 | 19876 ft | 356 kts | 226° |
| 2026-04-25 13:43 | 55.07659 | 11.96065 | 20428 ft | 359 kts | 226° |
| 2026-04-25 13:43 | 55.05648 | 11.93502 | 20963 ft | 362 kts | 226° |
| 2026-04-25 13:43 | 55.04282 | 11.91764 | 21318 ft | 364 kts | 226° |
| 2026-04-25 13:44 | 55.01530 | 11.88270 | 22009 ft | 368 kts | 226° |
| 2026-04-25 13:44 | 54.99464 | 11.85649 | 22500 ft | 371 kts | 226° |
| 2026-04-25 13:44 | 54.97341 | 11.82961 | 22986 ft | 374 kts | 226° |
| 2026-04-25 13:44 | 54.95232 | 11.80296 | 23454 ft | 377 kts | 226° |
| 2026-04-25 13:45 | 54.93100 | 11.77604 | 23909 ft | 381 kts | 226° |
| 2026-04-25 13:45 | 54.90971 | 11.74920 | 24350 ft | 383 kts | 226° |
| 2026-04-25 13:45 | 54.88792 | 11.72179 | 24789 ft | 386 kts | 226° |
| 2026-04-25 13:45 | 54.86628 | 11.69460 | 25218 ft | 389 kts | 226° |
| 2026-04-25 13:46 | 54.84417 | 11.66685 | 25654 ft | 392 kts | 225° |
| 2026-04-25 13:46 | 54.82206 | 11.63915 | 26077 ft | 394 kts | 225° |
| 2026-04-25 13:46 | 54.79979 | 11.61125 | 26487 ft | 397 kts | 225° |
| 2026-04-25 13:46 | 54.77740 | 11.58320 | 26888 ft | 400 kts | 225° |
| 2026-04-25 13:47 | 54.75479 | 11.55493 | 27273 ft | 403 kts | 225° |
| 2026-04-25 13:47 | 54.73183 | 11.52630 | 27650 ft | 406 kts | 225° |
| 2026-04-25 13:47 | 54.70889 | 11.49773 | 28015 ft | 408 kts | 225° |
| 2026-04-25 13:47 | 54.68589 | 11.46913 | 28372 ft | 411 kts | 225° |
| 2026-04-25 13:48 | 54.66263 | 11.44027 | 28715 ft | 414 kts | 225° |
| 2026-04-25 13:48 | 54.63924 | 11.41129 | 29053 ft | 416 kts | 225° |
| 2026-04-25 13:48 | 54.61543 | 11.38185 | 29400 ft | 418 kts | 225° |
| 2026-04-25 13:48 | 54.59197 | 11.35288 | 29783 ft | 419 kts | 225° |
| 2026-04-25 13:49 | 54.56819 | 11.32358 | 30248 ft | 418 kts | 224° |
| 2026-04-25 13:49 | 54.54449 | 11.29448 | 30705 ft | 418 kts | 224° |
| 2026-04-25 13:49 | 54.52099 | 11.26581 | 31145 ft | 417 kts | 224° |
| 2026-04-25 13:49 | 54.49699 | 11.23663 | 31587 ft | 417 kts | 224° |
| 2026-04-25 13:50 | 54.47338 | 11.20796 | 31997 ft | 416 kts | 224° |